createdAt,value
2018-01-31T01:53:38.249Z,138.20
2018-01-31T01:56:05.730Z,138.20
2018-01-31T01:58:33.176Z,137.13
2018-01-31T02:01:00.643Z,135.13
2018-01-31T02:03:28.102Z,137.70
2018-01-31T02:05:55.554Z,136.53
2018-01-31T02:08:23.023Z,138.20
2018-01-31T02:10:50.466Z,136.60
2018-01-31T02:13:17.953Z,135.70
2018-01-31T02:15:45.415Z,135.70
2018-01-31T02:18:13.084Z,137.43
2018-01-31T02:20:40.553Z,138.63
2018-01-31T02:23:08.057Z,143.40
2018-01-31T02:25:35.502Z,140.90
2018-01-31T02:28:02.978Z,139.48
2018-01-31T02:30:30.422Z,145.95
2018-01-31T02:32:57.878Z,144.80
2018-01-31T02:35:25.321Z,145.65
2018-01-31T02:37:52.815Z,140.82
2018-01-31T02:40:20.266Z,144.45
2018-01-31T02:42:47.712Z,142.27
2018-01-31T02:45:15.166Z,145.23
2018-01-31T02:47:42.658Z,146.10
2018-01-31T02:50:10.110Z,143.75
2018-01-31T02:52:37.862Z,146.32
2018-01-31T02:55:05.306Z,144.57
2018-01-31T02:57:32.760Z,146.45
2018-01-31T03:00:00.214Z,149.12
2018-01-31T03:02:28.441Z,148.77
2018-01-31T03:04:55.888Z,145.48
2018-01-31T03:07:23.334Z,144.48
2018-01-31T03:09:50.813Z,151.55
2018-01-31T03:12:18.275Z,146.82
2018-01-31T03:14:45.718Z,166.55
2018-01-31T03:17:13.167Z,164.60
2018-01-31T03:19:40.638Z,155.82
2018-01-31T03:22:08.086Z,154.68
2018-01-31T03:24:35.714Z,149.25
2018-01-31T03:27:03.185Z,147.60
2018-01-31T03:29:30.649Z,148.52
2018-01-31T03:31:58.402Z,147.70
2018-01-31T03:34:25.846Z,147.00
2018-01-31T03:36:53.297Z,143.82
2018-01-31T03:39:20.754Z,145.62
2018-01-31T03:41:48.209Z,147.05
2018-01-31T03:44:15.659Z,155.63
2018-01-31T03:46:43.109Z,146.73
2018-01-31T03:49:10.554Z,147.57
2018-01-31T03:51:38.051Z,145.38
2018-01-31T03:54:05.502Z,140.45
2018-01-31T03:56:32.953Z,147.35
2018-01-31T03:59:00.426Z,145.43
2018-01-31T04:01:28.650Z,148.32
2018-01-31T04:03:56.101Z,148.60
2018-01-31T04:06:23.561Z,143.53
2018-01-31T04:08:51.169Z,161.93
2018-01-31T04:11:18.660Z,146.33
2018-01-31T04:13:46.114Z,144.97
2018-01-31T04:16:13.567Z,145.50
2018-01-31T04:18:41.016Z,143.67
2018-01-31T04:21:08.469Z,146.90
2018-01-31T04:23:35.910Z,149.43
2018-01-31T04:26:03.365Z,146.17
2018-01-31T04:28:30.810Z,142.13
2018-01-31T04:30:59.045Z,158.53
2018-01-31T04:33:26.503Z,145.52
2018-01-31T04:35:54.131Z,146.87
2018-01-31T04:38:21.585Z,148.68
2018-01-31T04:40:49.053Z,147.52
2018-01-31T04:43:16.507Z,150.17
2018-01-31T04:45:43.977Z,147.05
2018-01-31T04:48:11.473Z,148.62
2018-01-31T04:50:38.949Z,157.23
2018-01-31T04:53:06.410Z,148.87
2018-01-31T04:55:33.937Z,147.30
2018-01-31T04:58:01.901Z,156.20
2018-01-31T05:00:29.665Z,149.37
2018-01-31T05:02:57.810Z,149.13
2018-01-31T05:05:26.422Z,147.60
2018-01-31T05:07:54.081Z,151.53
2018-01-31T05:10:21.766Z,151.27
2018-01-31T05:12:49.999Z,157.93
2018-01-31T05:15:17.451Z,150.67
2018-01-31T05:17:45.263Z,158.90
2018-01-31T05:20:12.714Z,151.27
2018-01-31T05:22:40.771Z,150.93
2018-01-31T05:25:08.213Z,154.50
2018-01-31T05:27:35.995Z,154.73
2018-01-31T05:30:03.701Z,152.07
2018-01-31T05:32:31.398Z,155.50
2018-01-31T05:34:58.982Z,152.37
2018-01-31T05:37:26.615Z,151.53
2018-01-31T05:39:54.501Z,153.33
2018-01-31T05:42:21.961Z,155.73
2018-01-31T05:44:49.621Z,148.77
2018-01-31T05:47:17.186Z,154.13
2018-01-31T05:49:44.629Z,153.27
2018-01-31T05:52:12.422Z,158.63
2018-01-31T05:54:40.157Z,161.60
2018-01-31T05:57:07.853Z,154.27
2018-01-31T05:59:35.563Z,152.27
2018-01-31T06:02:04.082Z,155.53
2018-01-31T06:04:31.832Z,156.73
2018-01-31T06:06:59.482Z,159.77
2018-01-31T06:09:27.066Z,156.13
2018-01-31T06:11:54.838Z,155.60
2018-01-31T06:14:22.277Z,154.13
2018-01-31T06:16:49.895Z,157.37
2018-01-31T06:19:18.306Z,163.53
2018-01-31T06:21:46.094Z,157.83
2018-01-31T06:24:13.653Z,172.30
2018-01-31T06:26:41.156Z,153.37
2018-01-31T06:29:09.180Z,160.80
2018-01-31T06:31:36.823Z,161.60
2018-01-31T06:34:04.701Z,157.07
2018-01-31T06:36:32.486Z,163.27
2018-01-31T06:38:59.946Z,154.40
2018-01-31T06:41:27.397Z,159.67
2018-01-31T06:43:55.167Z,159.83
2018-01-31T06:46:22.622Z,178.00
2018-01-31T06:48:50.374Z,159.43
2018-01-31T06:51:18.135Z,161.17
2018-01-31T06:53:46.211Z,161.97
2018-01-31T06:56:13.738Z,157.47
2018-01-31T06:58:41.189Z,160.50
2018-01-31T07:01:09.193Z,160.10
2018-01-31T07:03:36.859Z,162.07
2018-01-31T07:06:04.339Z,157.20
2018-01-31T07:08:32.054Z,164.17
2018-01-31T07:10:59.485Z,167.63
2018-01-31T07:13:27.703Z,159.97
2018-01-31T07:15:55.138Z,157.30
2018-01-31T07:18:22.597Z,164.17
2018-01-31T07:20:50.677Z,154.53
2018-01-31T07:23:18.377Z,161.10
2018-01-31T07:25:46.193Z,160.73
2018-01-31T07:28:13.650Z,162.37
2018-01-31T07:30:41.089Z,159.90
2018-01-31T07:33:09.078Z,162.27
2018-01-31T07:35:36.674Z,161.37
2018-01-31T07:38:04.421Z,167.03
2018-01-31T07:40:31.986Z,160.27
2018-01-31T07:42:59.446Z,161.97
2018-01-31T07:45:27.404Z,167.27
2018-01-31T07:47:55.493Z,165.07
2018-01-31T07:50:23.254Z,166.03
2018-01-31T07:52:51.015Z,182.17
2018-01-31T07:55:18.526Z,175.67
2018-01-31T07:57:45.974Z,179.77
2018-01-31T08:00:13.715Z,192.67
2018-01-31T08:02:41.492Z,191.37
2018-01-31T08:05:09.150Z,166.33
2018-01-31T08:07:37.773Z,178.93
2018-01-31T08:10:05.242Z,193.63
2018-01-31T08:12:32.841Z,170.20
2018-01-31T08:15:00.488Z,241.33
2018-01-31T08:17:28.230Z,175.17
2018-01-31T08:19:56.078Z,178.80
2018-01-31T08:22:23.533Z,197.67
2018-01-31T08:24:50.986Z,170.43
2018-01-31T08:27:18.667Z,168.65
2018-01-31T08:29:46.161Z,176.43
2018-01-31T08:32:13.633Z,165.43
2018-01-31T08:34:41.422Z,166.07
2018-01-31T08:37:08.894Z,170.93
2018-01-31T08:39:36.689Z,163.05
2018-01-31T08:42:04.698Z,169.73
2018-01-31T08:44:32.169Z,171.90
2018-01-31T08:46:59.627Z,189.53
2018-01-31T08:49:27.161Z,173.27
2018-01-31T08:51:54.612Z,172.23
2018-01-31T08:54:22.227Z,170.93
2018-01-31T08:56:49.745Z,168.37
2018-01-31T08:59:17.218Z,171.53
2018-01-31T09:01:44.938Z,170.43
2018-01-31T09:04:12.690Z,163.27
2018-01-31T09:06:40.506Z,166.37
2018-01-31T09:09:08.066Z,169.62
2018-01-31T09:11:35.654Z,169.98
2018-01-31T09:14:03.451Z,169.85
2018-01-31T09:16:30.906Z,164.27
2018-01-31T09:18:58.734Z,163.27
2018-01-31T09:21:26.401Z,177.50
2018-01-31T09:23:53.875Z,172.73
2018-01-31T09:26:21.348Z,161.90
2018-01-31T09:28:48.982Z,166.67
2018-01-31T09:31:16.686Z,176.20
2018-01-31T09:33:44.154Z,178.33
2018-01-31T09:36:12.099Z,183.80
2018-01-31T09:38:39.850Z,176.83
2018-01-31T09:41:07.522Z,176.77
2018-01-31T09:43:34.966Z,164.63
2018-01-31T09:46:02.590Z,172.77
2018-01-31T09:48:30.333Z,174.07
2018-01-31T09:50:58.171Z,170.50
2018-01-31T09:53:25.636Z,163.35
2018-01-31T09:55:53.082Z,178.00
2018-01-31T09:58:20.759Z,164.00
2018-01-31T10:00:48.511Z,122.90
2018-01-31T10:03:16.022Z,152.47
2018-01-31T10:05:43.761Z,158.43
2018-01-31T10:08:12.550Z,158.27
2018-01-31T10:10:40.012Z,159.30
2018-01-31T10:13:09.429Z,167.97
2018-01-31T10:15:37.637Z,177.20
2018-01-31T10:18:05.081Z,149.00
2018-01-31T10:20:32.538Z,170.63
2018-01-31T10:23:00.196Z,186.63
2018-01-31T10:25:27.670Z,174.83
2018-01-31T10:27:55.130Z,173.87
2018-01-31T10:30:22.705Z,173.57
2018-01-31T10:32:50.497Z,178.47
2018-01-31T10:35:18.533Z,175.53
2018-01-31T10:37:45.975Z,181.73
2018-01-31T10:40:13.458Z,156.17
2018-01-31T10:42:41.009Z,187.27
2018-01-31T10:45:08.567Z,184.07
2018-01-31T10:47:36.317Z,180.17
2018-01-31T10:50:03.773Z,182.67
2018-01-31T10:52:32.184Z,188.13
2018-01-31T10:57:29.227Z,190.00
2018-01-31T10:59:54.813Z,200.80
2018-01-31T11:02:22.577Z,167.47
2018-01-31T11:04:50.136Z,202.57
2018-01-31T11:07:17.841Z,200.80
2018-01-31T11:09:45.893Z,123.97
2018-01-31T11:12:13.486Z,129.93
2018-01-31T11:14:41.229Z,118.23
2018-01-31T11:17:08.998Z,135.37
2018-01-31T11:19:36.676Z,140.37
2018-01-31T11:22:04.165Z,142.63
2018-01-31T11:24:31.616Z,141.13
2018-01-31T11:26:59.943Z,124.80
2018-01-31T11:29:27.401Z,121.07
2018-01-31T11:31:56.079Z,122.00
2018-01-31T11:34:23.962Z,133.53
2018-01-31T11:36:52.025Z,137.67
2018-01-31T11:39:19.683Z,139.37
2018-01-31T11:41:47.594Z,178.07
2018-01-31T11:44:15.038Z,178.43
2018-01-31T11:46:43.092Z,193.77
2018-01-31T11:49:11.158Z,200.07
2018-01-31T11:51:38.790Z,163.50
2018-01-31T11:54:06.392Z,146.93
2018-01-31T11:56:34.141Z,153.67
2018-01-31T11:59:01.913Z,142.23
2018-01-31T12:01:29.685Z,144.63
2018-01-31T12:03:57.747Z,143.63
2018-01-31T12:06:25.383Z,157.13
2018-01-31T12:08:52.985Z,147.23
2018-01-31T12:11:20.735Z,147.50
2018-01-31T12:14:10.616Z,147.80
2018-01-31T12:30:17.690Z,126.87
2018-01-31T12:32:57.137Z,127.73
2018-01-31T12:35:36.285Z,114.77
2018-01-31T12:38:15.698Z,122.10
2018-01-31T12:40:42.679Z,118.47
2018-01-31T12:43:09.623Z,146.80
2018-01-31T12:45:36.562Z,129.57
2018-01-31T12:48:06.069Z,138.73
2018-01-31T12:50:46.500Z,141.43
2018-01-31T12:53:25.944Z,132.00
2018-01-31T12:56:05.128Z,116.07
2018-01-31T12:58:44.384Z,125.87
2018-01-31T13:01:23.793Z,108.43
2018-01-31T13:04:04.003Z,111.93
2018-01-31T13:06:43.429Z,117.47
2018-01-31T13:09:21.022Z,112.30
2018-01-31T13:12:00.274Z,116.97
2018-01-31T13:14:51.234Z,88.37
2018-01-31T13:17:24.185Z,99.40
2018-01-31T13:20:03.402Z,83.97
2018-01-31T13:22:49.440Z,104.80
2018-01-31T13:25:28.704Z,97.73
2018-01-31T13:28:13.692Z,84.63
2018-01-31T13:44:22.767Z,72.60
2018-01-31T13:47:02.119Z,27.53
2018-01-31T13:49:41.705Z,13.43
2018-01-31T13:52:28.489Z,17.67
2018-01-31T13:55:07.754Z,18.03
2018-01-31T13:57:47.162Z,36.23
2018-01-31T14:00:26.615Z,35.30
2018-01-31T14:03:05.726Z,42.37
2018-01-31T14:05:45.163Z,42.07
2018-01-31T14:08:24.910Z,39.70
2018-01-31T14:11:03.985Z,55.83
2018-01-31T14:13:43.326Z,60.40
2018-01-31T14:16:23.489Z,59.27
2018-01-31T14:19:02.973Z,57.13
2018-01-31T14:21:42.429Z,54.00
2018-01-31T14:24:34.537Z,54.83
2018-01-31T14:27:13.706Z,58.20
2018-01-31T14:29:52.994Z,60.77
2018-01-31T14:32:32.451Z,53.63
2018-01-31T14:35:11.681Z,54.87
2018-01-31T14:37:38.652Z,48.30
2018-01-31T14:40:05.886Z,50.47
2018-01-31T14:42:33.026Z,47.90
2018-01-31T14:45:00.485Z,49.83
2018-01-31T14:47:27.933Z,40.53
2018-01-31T14:49:54.880Z,46.57
2018-01-31T14:52:21.825Z,46.87
2018-01-31T14:54:49.097Z,43.77
2018-01-31T14:57:16.238Z,43.03
2018-01-31T14:59:43.185Z,41.53
2018-01-31T15:02:10.133Z,40.87
2018-01-31T15:04:37.119Z,33.33
2018-01-31T15:07:04.087Z,37.10
2018-01-31T15:09:31.388Z,33.67
2018-01-31T15:11:59.793Z,30.73
2018-01-31T15:14:26.903Z,32.30
2018-01-31T15:16:53.846Z,29.50
2018-01-31T15:19:20.861Z,19.53
2018-01-31T15:21:47.815Z,11.47
2018-01-31T15:24:14.765Z,18.50
2018-01-31T15:26:41.729Z,10.70
2018-01-31T15:29:09.177Z,19.83
2018-01-31T15:31:36.109Z,7.80
2018-01-31T15:34:03.183Z,30.33
2018-01-31T15:36:30.282Z,10.50
2018-01-31T15:38:57.421Z,4.70
2018-01-31T15:41:24.626Z,3.90
2018-01-31T15:43:51.734Z,5.47
2018-01-31T15:46:18.682Z,11.43
2018-01-31T15:48:45.645Z,18.27
2018-01-31T15:51:12.588Z,3.90
2018-01-31T15:53:40.062Z,5.00
2018-01-31T15:56:07.157Z,4.57
2018-01-31T15:58:34.119Z,3.03
2018-01-31T16:01:01.291Z,4.30
2018-01-31T16:03:28.226Z,3.97
2018-01-31T16:05:55.174Z,2.77
2018-01-31T16:08:22.310Z,3.90
2018-01-31T16:10:49.268Z,3.90
2018-01-31T16:13:16.696Z,3.77
2018-01-31T16:15:44.107Z,3.37
2018-01-31T16:18:23.547Z,3.53
2018-01-31T16:20:51.926Z,3.37
2018-01-31T16:23:19.603Z,4.77
2018-01-31T16:25:47.331Z,3.67
2018-01-31T16:28:26.642Z,6.80
2018-01-31T16:30:54.351Z,7.43
2018-01-31T16:33:36.254Z,5.30
2018-01-31T16:36:03.703Z,6.30
2018-01-31T16:38:31.154Z,4.07
2018-01-31T16:40:58.685Z,4.07
2018-01-31T16:43:26.578Z,6.00
2018-01-31T16:45:54.319Z,7.30
2018-01-31T16:48:21.941Z,4.20
2018-01-31T16:50:49.379Z,5.20
2018-01-31T16:53:16.990Z,4.40
2018-01-31T16:55:44.435Z,4.60
2018-01-31T16:58:12.966Z,5.30
2018-01-31T17:00:40.433Z,3.23
2018-01-31T17:03:07.873Z,2.47
2018-01-31T17:05:35.309Z,2.07
2018-01-31T17:08:04.336Z,1.97
2018-01-31T17:10:32.090Z,1.50
2018-01-31T17:12:59.518Z,1.23
2018-01-31T17:15:27.237Z,2.17
2018-01-31T17:17:54.721Z,3.83
2018-01-31T17:20:22.399Z,7.03
2018-01-31T17:22:50.100Z,1.10
2018-01-31T17:25:17.758Z,1.93
2018-01-31T17:27:45.434Z,3.60
2018-01-31T17:30:12.894Z,2.00
2018-01-31T17:32:40.638Z,1.30
2018-01-31T17:35:08.193Z,1.07
2018-01-31T17:37:35.998Z,1.50
2018-01-31T17:40:03.610Z,1.43
2018-01-31T17:42:31.086Z,1.70
2018-01-31T17:44:58.660Z,1.90
2018-01-31T17:47:26.573Z,1.73
2018-01-31T17:49:55.106Z,1.77
2018-01-31T17:52:22.874Z,2.10
2018-01-31T17:54:50.501Z,1.37
2018-01-31T17:57:18.254Z,1.50
2018-01-31T17:59:46.012Z,3.47
2018-01-31T18:02:13.491Z,2.03
2018-01-31T18:04:40.947Z,4.87
2018-01-31T18:07:08.503Z,3.03
2018-01-31T18:09:35.928Z,2.67
2018-01-31T18:12:03.363Z,1.90
2018-01-31T18:14:30.797Z,2.47
2018-01-31T18:16:58.274Z,2.60
2018-01-31T18:19:25.749Z,1.37
2018-01-31T18:21:53.170Z,2.37
2018-01-31T18:24:20.602Z,1.87
2018-01-31T18:26:48.030Z,1.57
2018-01-31T18:29:16.250Z,2.97
2018-01-31T18:31:43.673Z,2.27
2018-01-31T18:34:11.139Z,1.30
2018-01-31T18:36:38.575Z,2.30
2018-01-31T18:39:06.010Z,2.33
2018-01-31T18:41:33.446Z,2.10
2018-01-31T18:44:00.893Z,4.87
2018-01-31T18:46:28.327Z,3.80
2018-01-31T18:48:55.785Z,4.50
2018-01-31T18:51:23.222Z,4.50
2018-01-31T18:53:50.670Z,4.27
2018-01-31T18:56:18.882Z,3.83
2018-01-31T18:58:46.312Z,3.23
2018-01-31T19:01:13.773Z,6.03
2018-01-31T19:03:41.197Z,6.10
2018-01-31T19:06:08.641Z,10.10
2018-01-31T19:08:36.098Z,9.03
2018-01-31T19:11:03.578Z,6.57
2018-01-31T19:13:31.007Z,6.03
2018-01-31T19:15:58.474Z,9.30
2018-01-31T19:18:25.918Z,11.90
2018-01-31T19:20:53.379Z,6.63
2018-01-31T19:23:21.106Z,3.93
2018-01-31T19:25:48.522Z,6.10
2018-01-31T19:28:15.954Z,7.90
2018-01-31T19:30:43.423Z,8.53
2018-01-31T19:33:10.845Z,4.80
2018-01-31T19:35:38.300Z,7.07
2018-01-31T19:38:05.742Z,4.50
2018-01-31T19:40:33.180Z,7.80
2018-01-31T19:43:00.814Z,3.63
2018-01-31T19:45:28.258Z,3.53
2018-01-31T19:47:55.705Z,9.63
2018-01-31T19:50:23.140Z,15.90
2018-01-31T19:52:50.687Z,22.53
2018-01-31T19:55:18.366Z,15.80
2018-01-31T19:57:45.801Z,25.40
2018-01-31T20:00:13.273Z,23.23
2018-01-31T20:02:40.748Z,24.83
2018-01-31T20:05:08.186Z,20.93
2018-01-31T20:07:35.636Z,26.27
2018-01-31T20:10:03.065Z,28.53
2018-01-31T20:12:31.294Z,19.43
2018-01-31T20:14:58.739Z,29.60
2018-01-31T20:17:26.196Z,19.13
2018-01-31T20:19:53.643Z,12.63
2018-01-31T20:22:21.090Z,15.73
2018-01-31T20:24:48.545Z,17.70
2018-01-31T20:27:15.993Z,20.20
2018-01-31T20:29:44.203Z,23.23
2018-01-31T20:32:11.644Z,11.80
2018-01-31T20:34:39.115Z,9.83
2018-01-31T20:37:06.558Z,11.90
2018-01-31T20:39:34.011Z,9.63
2018-01-31T20:42:01.506Z,15.67
2018-01-31T20:44:29.430Z,16.87
2018-01-31T20:46:57.125Z,16.20
2018-01-31T20:49:24.606Z,20.40
2018-01-31T20:51:52.074Z,30.23
2018-01-31T20:54:19.494Z,32.70
2018-01-31T20:56:46.921Z,35.73
2018-01-31T20:59:14.382Z,38.20
2018-01-31T21:01:41.827Z,38.77
2018-01-31T21:04:10.044Z,39.13
2018-01-31T21:06:37.498Z,30.97
2018-01-31T21:09:04.971Z,33.13
2018-01-31T21:11:32.428Z,36.13
2018-01-31T21:13:59.860Z,35.17
2018-01-31T21:16:27.317Z,40.33
2018-01-31T21:18:54.754Z,27.73
2018-01-31T21:21:22.193Z,36.80
2018-01-31T21:23:49.631Z,35.10
2018-01-31T21:26:17.104Z,36.47
2018-01-31T21:28:45.310Z,15.90
2018-01-31T21:31:12.754Z,20.63
2018-01-31T21:33:40.246Z,14.93
2018-01-31T21:36:07.694Z,21.53
2018-01-31T21:38:35.134Z,54.93
2018-01-31T21:41:02.604Z,42.93
2018-01-31T21:43:30.037Z,33.43
2018-01-31T21:45:57.485Z,26.87
2018-01-31T21:48:24.917Z,24.13
2018-01-31T21:50:52.389Z,39.57
2018-01-31T21:53:19.809Z,27.13
2018-01-31T21:55:47.888Z,20.43
2018-01-31T21:58:15.325Z,23.13
2018-01-31T22:00:42.781Z,41.97
2018-01-31T22:03:10.249Z,38.03
2018-01-31T22:05:37.701Z,31.10
2018-01-31T22:08:05.147Z,35.90
2018-01-31T22:10:32.590Z,38.77
2018-01-31T22:13:00.028Z,32.70
2018-01-31T22:15:27.477Z,27.33
2018-01-31T22:17:54.919Z,40.10
2018-01-31T22:20:22.388Z,32.77
2018-01-31T22:22:49.829Z,30.20
2018-01-31T22:25:17.273Z,19.40
2018-01-31T22:27:45.493Z,24.90
2018-01-31T22:30:13.053Z,17.20
2018-01-31T22:32:40.962Z,19.13
2018-01-31T22:35:08.410Z,19.33
2018-01-31T22:37:36.488Z,14.60
2018-01-31T22:40:03.947Z,18.40
2018-01-31T22:42:31.584Z,16.33
2018-01-31T22:44:59.026Z,24.10
2018-01-31T22:47:26.609Z,17.67
2018-01-31T22:49:54.065Z,17.80
2018-01-31T22:52:21.490Z,8.53
2018-01-31T22:54:49.001Z,11.30
2018-01-31T22:57:16.706Z,7.40
2018-01-31T22:59:45.357Z,23.90
2018-01-31T23:02:12.837Z,24.00
2018-01-31T23:04:40.273Z,7.67
2018-01-31T23:07:07.736Z,8.20
2018-01-31T23:09:35.182Z,14.10
2018-01-31T23:12:08.175Z,15.70
2018-01-31T23:14:41.229Z,24.23
2018-01-31T23:17:08.689Z,22.00
2018-01-31T23:19:36.138Z,25.10
2018-01-31T23:22:03.583Z,23.90
2018-01-31T23:24:31.023Z,30.47
2018-01-31T23:26:58.464Z,26.63
2018-01-31T23:29:25.901Z,33.03
2018-01-31T23:31:53.353Z,20.50
2018-01-31T23:34:20.798Z,17.43
2018-01-31T23:36:48.269Z,12.83
2018-01-31T23:39:15.714Z,6.50
2018-01-31T23:41:43.142Z,4.30
2018-01-31T23:44:10.589Z,7.33
2018-01-31T23:46:38.036Z,6.63
2018-01-31T23:49:06.238Z,7.77
2018-01-31T23:51:33.670Z,8.67
2018-01-31T23:54:01.106Z,6.00
2018-01-31T23:56:28.542Z,8.10
2018-01-31T23:58:55.998Z,8.20
